sensor_id;sensor_type;location;lat;lon;timestamp;P1;durP1;ratioP1;P2;durP2;ratioP2
36593;SDS011;22603;47.900;8.146;2023-04-25T00:00:14;5.23;;;2.10;;
36593;SDS011;22603;47.900;8.146;2023-04-25T00:03:02;3.67;;;1.90;;
36593;SDS011;22603;47.900;8.146;2023-04-25T00:05:51;6.20;;;2.10;;
36593;SDS011;22603;47.900;8.146;2023-04-25T00:08:41;6.53;;;2.00;;
36593;SDS011;22603;47.900;8.146;2023-04-25T00:11:29;5.63;;;2.00;;
36593;SDS011;22603;47.900;8.146;2023-04-25T00:14:16;8.90;;;2.43;;
36593;SDS011;22603;47.900;8.146;2023-04-25T00:17:05;7.20;;;2.40;;
36593;SDS011;22603;47.900;8.146;2023-04-25T00:19:52;10.33;;;2.47;;
36593;SDS011;22603;47.900;8.146;2023-04-25T00:22:40;4.33;;;1.90;;
36593;SDS011;22603;47.900;8.146;2023-04-25T00:25:28;5.10;;;1.90;;
36593;SDS011;22603;47.900;8.146;2023-04-25T00:28:14;4.37;;;2.00;;
36593;SDS011;22603;47.900;8.146;2023-04-25T00:31:04;7.67;;;2.37;;
36593;SDS011;22603;47.900;8.146;2023-04-25T00:33:51;7.73;;;2.20;;
36593;SDS011;22603;47.900;8.146;2023-04-25T00:36:39;9.43;;;2.53;;
36593;SDS011;22603;47.900;8.146;2023-04-25T00:39:27;4.63;;;1.80;;
36593;SDS011;22603;47.900;8.146;2023-04-25T00:42:14;4.30;;;1.67;;
36593;SDS011;22603;47.900;8.146;2023-04-25T00:45:01;3.70;;;1.57;;
36593;SDS011;22603;47.900;8.146;2023-04-25T00:47:52;4.37;;;1.40;;
36593;SDS011;22603;47.900;8.146;2023-04-25T00:50:44;7.63;;;1.70;;
36593;SDS011;22603;47.900;8.146;2023-04-25T00:53:38;2.73;;;1.37;;
36593;SDS011;22603;47.900;8.146;2023-04-25T00:56:26;3.63;;;1.50;;
36593;SDS011;22603;47.900;8.146;2023-04-25T00:59:14;4.50;;;1.83;;
36593;SDS011;22603;47.900;8.146;2023-04-25T01:02:01;3.43;;;1.40;;
36593;SDS011;22603;47.900;8.146;2023-04-25T01:04:50;4.27;;;1.87;;
36593;SDS011;22603;47.900;8.146;2023-04-25T01:07:43;3.97;;;1.70;;
36593;SDS011;22603;47.900;8.146;2023-04-25T01:10:32;4.87;;;1.90;;
36593;SDS011;22603;47.900;8.146;2023-04-25T01:13:20;5.27;;;2.00;;
36593;SDS011;22603;47.900;8.146;2023-04-25T01:16:08;4.63;;;1.87;;
36593;SDS011;22603;47.900;8.146;2023-04-25T01:18:54;3.30;;;1.43;;
36593;SDS011;22603;47.900;8.146;2023-04-25T01:21:43;3.63;;;1.67;;
36593;SDS011;22603;47.900;8.146;2023-04-25T01:24:31;5.03;;;1.70;;
36593;SDS011;22603;47.900;8.146;2023-04-25T01:27:19;5.40;;;1.83;;
36593;SDS011;22603;47.900;8.146;2023-04-25T01:30:06;6.20;;;1.93;;
36593;SDS011;22603;47.900;8.146;2023-04-25T01:32:56;8.63;;;1.63;;
36593;SDS011;22603;47.900;8.146;2023-04-25T01:35:44;5.40;;;2.10;;
36593;SDS011;22603;47.900;8.146;2023-04-25T01:38:34;5.60;;;1.93;;
36593;SDS011;22603;47.900;8.146;2023-04-25T01:41:21;3.93;;;1.87;;
36593;SDS011;22603;47.900;8.146;2023-04-25T01:44:09;4.63;;;1.90;;
36593;SDS011;22603;47.900;8.146;2023-04-25T01:46:59;5.63;;;1.63;;
36593;SDS011;22603;47.900;8.146;2023-04-25T01:49:49;5.43;;;1.90;;
36593;SDS011;22603;47.900;8.146;2023-04-25T01:52:36;7.33;;;1.97;;
36593;SDS011;22603;47.900;8.146;2023-04-25T01:55:25;6.53;;;2.37;;
36593;SDS011;22603;47.900;8.146;2023-04-25T01:58:12;4.00;;;1.53;;
36593;SDS011;22603;47.900;8.146;2023-04-25T02:00:59;5.50;;;1.70;;
36593;SDS011;22603;47.900;8.146;2023-04-25T02:03:46;11.60;;;2.57;;
36593;SDS011;22603;47.900;8.146;2023-04-25T02:06:36;5.60;;;1.87;;
36593;SDS011;22603;47.900;8.146;2023-04-25T02:09:23;8.67;;;1.80;;
36593;SDS011;22603;47.900;8.146;2023-04-25T02:12:12;5.83;;;1.70;;
36593;SDS011;22603;47.900;8.146;2023-04-25T02:15:02;5.93;;;1.90;;
36593;SDS011;22603;47.900;8.146;2023-04-25T02:17:49;3.73;;;1.70;;
36593;SDS011;22603;47.900;8.146;2023-04-25T02:20:39;3.13;;;1.80;;
36593;SDS011;22603;47.900;8.146;2023-04-25T02:23:26;5.40;;;2.30;;
36593;SDS011;22603;47.900;8.146;2023-04-25T02:26:14;5.53;;;2.10;;
36593;SDS011;22603;47.900;8.146;2023-04-25T02:29:02;4.77;;;1.80;;
36593;SDS011;22603;47.900;8.146;2023-04-25T02:31:49;4.90;;;1.83;;
36593;SDS011;22603;47.900;8.146;2023-04-25T02:34:37;6.80;;;2.10;;
36593;SDS011;22603;47.900;8.146;2023-04-25T02:37:24;5.03;;;1.83;;
36593;SDS011;22603;47.900;8.146;2023-04-25T02:40:11;4.27;;;2.03;;
36593;SDS011;22603;47.900;8.146;2023-04-25T02:42:58;15.67;;;2.30;;
36593;SDS011;22603;47.900;8.146;2023-04-25T02:45:47;4.83;;;1.87;;
36593;SDS011;22603;47.900;8.146;2023-04-25T02:48:34;6.37;;;2.07;;
36593;SDS011;22603;47.900;8.146;2023-04-25T02:51:21;7.07;;;2.33;;
36593;SDS011;22603;47.900;8.146;2023-04-25T02:54:11;6.30;;;2.10;;
36593;SDS011;22603;47.900;8.146;2023-04-25T02:56:58;4.47;;;2.00;;
36593;SDS011;22603;47.900;8.146;2023-04-25T02:59:48;4.77;;;2.00;;
36593;SDS011;22603;47.900;8.146;2023-04-25T03:02:36;6.57;;;2.07;;
36593;SDS011;22603;47.900;8.146;2023-04-25T03:05:24;3.83;;;2.00;;
36593;SDS011;22603;47.900;8.146;2023-04-25T03:08:11;8.23;;;2.67;;
36593;SDS011;22603;47.900;8.146;2023-04-25T03:10:58;6.13;;;2.10;;
36593;SDS011;22603;47.900;8.146;2023-04-25T03:13:45;8.50;;;2.23;;
36593;SDS011;22603;47.900;8.146;2023-04-25T03:16:32;6.30;;;2.00;;
36593;SDS011;22603;47.900;8.146;2023-04-25T03:19:21;6.10;;;2.20;;
36593;SDS011;22603;47.900;8.146;2023-04-25T03:22:10;4.63;;;2.17;;
36593;SDS011;22603;47.900;8.146;2023-04-25T03:24:57;6.27;;;2.30;;
36593;SDS011;22603;47.900;8.146;2023-04-25T03:27:46;7.53;;;2.47;;
36593;SDS011;22603;47.900;8.146;2023-04-25T03:30:33;7.57;;;2.40;;
36593;SDS011;22603;47.900;8.146;2023-04-25T03:33:19;8.27;;;1.90;;
36593;SDS011;22603;47.900;8.146;2023-04-25T03:36:08;6.37;;;2.20;;
36593;SDS011;22603;47.900;8.146;2023-04-25T03:38:55;7.70;;;2.30;;
36593;SDS011;22603;47.900;8.146;2023-04-25T03:41:42;7.80;;;2.67;;
36593;SDS011;22603;47.900;8.146;2023-04-25T03:44:30;5.33;;;2.10;;
36593;SDS011;22603;47.900;8.146;2023-04-25T03:47:16;7.23;;;2.43;;
36593;SDS011;22603;47.900;8.146;2023-04-25T03:50:03;7.30;;;1.97;;
36593;SDS011;22603;47.900;8.146;2023-04-25T03:52:53;5.00;;;1.73;;
36593;SDS011;22603;47.900;8.146;2023-04-25T03:55:40;6.83;;;2.60;;
36593;SDS011;22603;47.900;8.146;2023-04-25T03:58:29;7.03;;;2.47;;
36593;SDS011;22603;47.900;8.146;2023-04-25T04:01:16;9.00;;;2.10;;
36593;SDS011;22603;47.900;8.146;2023-04-25T04:04:03;6.50;;;2.50;;
36593;SDS011;22603;47.900;8.146;2023-04-25T04:06:50;6.00;;;2.57;;
36593;SDS011;22603;47.900;8.146;2023-04-25T04:09:39;5.33;;;2.27;;
36593;SDS011;22603;47.900;8.146;2023-04-25T04:12:26;6.20;;;2.53;;
36593;SDS011;22603;47.900;8.146;2023-04-25T04:15:13;7.43;;;2.67;;
36593;SDS011;22603;47.900;8.146;2023-04-25T04:18:00;5.70;;;2.27;;
36593;SDS011;22603;47.900;8.146;2023-04-25T04:20:47;9.33;;;2.77;;
36593;SDS011;22603;47.900;8.146;2023-04-25T04:23:34;8.23;;;3.03;;
36593;SDS011;22603;47.900;8.146;2023-04-25T04:26:25;10.93;;;3.10;;
36593;SDS011;22603;47.900;8.146;2023-04-25T04:29:12;5.80;;;2.37;;
36593;SDS011;22603;47.900;8.146;2023-04-25T04:32:06;6.90;;;2.70;;
36593;SDS011;22603;47.900;8.146;2023-04-25T04:34:54;8.43;;;2.47;;
36593;SDS011;22603;47.900;8.146;2023-04-25T04:37:41;7.30;;;2.47;;
36593;SDS011;22603;47.900;8.146;2023-04-25T04:40:29;6.93;;;3.07;;
36593;SDS011;22603;47.900;8.146;2023-04-25T04:43:19;9.30;;;3.33;;
36593;SDS011;22603;47.900;8.146;2023-04-25T04:46:08;7.20;;;3.23;;
36593;SDS011;22603;47.900;8.146;2023-04-25T04:48:56;8.63;;;2.67;;
36593;SDS011;22603;47.900;8.146;2023-04-25T04:51:43;7.57;;;2.83;;
36593;SDS011;22603;47.900;8.146;2023-04-25T04:54:30;7.73;;;3.23;;
36593;SDS011;22603;47.900;8.146;2023-04-25T04:57:17;7.17;;;2.70;;
36593;SDS011;22603;47.900;8.146;2023-04-25T05:00:06;9.70;;;3.33;;
36593;SDS011;22603;47.900;8.146;2023-04-25T05:02:56;7.33;;;2.90;;
36593;SDS011;22603;47.900;8.146;2023-04-25T05:05:43;10.00;;;3.67;;
36593;SDS011;22603;47.900;8.146;2023-04-25T05:08:31;7.87;;;3.07;;
36593;SDS011;22603;47.900;8.146;2023-04-25T05:11:18;9.87;;;4.00;;
36593;SDS011;22603;47.900;8.146;2023-04-25T05:14:05;9.47;;;3.60;;
36593;SDS011;22603;47.900;8.146;2023-04-25T05:16:53;8.63;;;3.67;;
36593;SDS011;22603;47.900;8.146;2023-04-25T05:19:41;8.60;;;3.30;;
36593;SDS011;22603;47.900;8.146;2023-04-25T05:22:28;7.23;;;3.13;;
36593;SDS011;22603;47.900;8.146;2023-04-25T05:25:15;6.93;;;3.07;;
36593;SDS011;22603;47.900;8.146;2023-04-25T05:28:02;8.73;;;3.40;;
36593;SDS011;22603;47.900;8.146;2023-04-25T05:30:49;11.10;;;3.23;;
36593;SDS011;22603;47.900;8.146;2023-04-25T05:33:38;11.20;;;3.47;;
36593;SDS011;22603;47.900;8.146;2023-04-25T05:36:25;8.70;;;3.03;;
36593;SDS011;22603;47.900;8.146;2023-04-25T05:39:12;9.93;;;3.37;;
36593;SDS011;22603;47.900;8.146;2023-04-25T05:42:00;8.77;;;3.30;;
36593;SDS011;22603;47.900;8.146;2023-04-25T05:44:48;8.53;;;3.37;;
36593;SDS011;22603;47.900;8.146;2023-04-25T05:47:36;9.37;;;3.60;;
36593;SDS011;22603;47.900;8.146;2023-04-25T05:50:25;7.47;;;2.70;;
36593;SDS011;22603;47.900;8.146;2023-04-25T05:53:12;9.60;;;3.50;;
36593;SDS011;22603;47.900;8.146;2023-04-25T05:55:59;11.63;;;4.00;;
36593;SDS011;22603;47.900;8.146;2023-04-25T05:58:46;6.97;;;3.13;;
36593;SDS011;22603;47.900;8.146;2023-04-25T06:01:33;7.47;;;2.67;;
36593;SDS011;22603;47.900;8.146;2023-04-25T06:04:20;7.63;;;3.17;;
36593;SDS011;22603;47.900;8.146;2023-04-25T06:07:08;10.20;;;3.83;;
36593;SDS011;22603;47.900;8.146;2023-04-25T06:09:56;9.37;;;3.70;;
36593;SDS011;22603;47.900;8.146;2023-04-25T06:12:43;7.80;;;2.73;;
36593;SDS011;22603;47.900;8.146;2023-04-25T06:15:30;10.47;;;3.43;;
36593;SDS011;22603;47.900;8.146;2023-04-25T06:18:18;7.57;;;2.90;;
36593;SDS011;22603;47.900;8.146;2023-04-25T06:21:05;8.60;;;2.50;;
36593;SDS011;22603;47.900;8.146;2023-04-25T06:23:53;7.33;;;2.73;;
36593;SDS011;22603;47.900;8.146;2023-04-25T06:26:40;5.90;;;2.53;;
36593;SDS011;22603;47.900;8.146;2023-04-25T06:29:27;6.93;;;2.97;;
36593;SDS011;22603;47.900;8.146;2023-04-25T06:32:15;6.83;;;2.77;;
36593;SDS011;22603;47.900;8.146;2023-04-25T06:35:06;11.20;;;3.20;;
36593;SDS011;22603;47.900;8.146;2023-04-25T06:37:53;11.10;;;3.57;;
36593;SDS011;22603;47.900;8.146;2023-04-25T06:40:43;6.23;;;2.50;;
36593;SDS011;22603;47.900;8.146;2023-04-25T06:43:30;12.13;;;2.17;;
36593;SDS011;22603;47.900;8.146;2023-04-25T06:46:18;7.40;;;2.50;;
36593;SDS011;22603;47.900;8.146;2023-04-25T06:49:05;6.60;;;2.40;;
36593;SDS011;22603;47.900;8.146;2023-04-25T06:51:52;7.20;;;2.20;;
36593;SDS011;22603;47.900;8.146;2023-04-25T06:54:39;5.37;;;2.00;;
36593;SDS011;22603;47.900;8.146;2023-04-25T06:57:27;6.97;;;2.30;;
36593;SDS011;22603;47.900;8.146;2023-04-25T07:00:14;10.53;;;3.03;;
36593;SDS011;22603;47.900;8.146;2023-04-25T07:03:02;9.33;;;2.70;;
36593;SDS011;22603;47.900;8.146;2023-04-25T07:05:52;6.97;;;2.33;;
36593;SDS011;22603;47.900;8.146;2023-04-25T07:08:40;15.17;;;3.50;;
36593;SDS011;22603;47.900;8.146;2023-04-25T07:11:28;14.27;;;3.57;;
36593;SDS011;22603;47.900;8.146;2023-04-25T07:14:18;8.70;;;3.60;;
36593;SDS011;22603;47.900;8.146;2023-04-25T07:17:05;13.97;;;4.27;;
36593;SDS011;22603;47.900;8.146;2023-04-25T07:19:52;6.83;;;2.37;;
36593;SDS011;22603;47.900;8.146;2023-04-25T07:22:40;3.57;;;1.70;;
36593;SDS011;22603;47.900;8.146;2023-04-25T07:25:28;5.80;;;2.23;;
36593;SDS011;22603;47.900;8.146;2023-04-25T07:28:15;7.33;;;2.67;;
36593;SDS011;22603;47.900;8.146;2023-04-25T07:31:05;7.20;;;2.27;;
36593;SDS011;22603;47.900;8.146;2023-04-25T07:33:52;4.53;;;1.70;;
36593;SDS011;22603;47.900;8.146;2023-04-25T07:36:38;6.10;;;2.10;;
36593;SDS011;22603;47.900;8.146;2023-04-25T07:39:25;5.07;;;1.70;;
36593;SDS011;22603;47.900;8.146;2023-04-25T07:42:12;4.13;;;1.30;;
36593;SDS011;22603;47.900;8.146;2023-04-25T07:45:00;6.73;;;2.23;;
36593;SDS011;22603;47.900;8.146;2023-04-25T07:47:49;6.53;;;1.93;;
36593;SDS011;22603;47.900;8.146;2023-04-25T07:50:36;4.07;;;1.77;;
36593;SDS011;22603;47.900;8.146;2023-04-25T07:53:23;2.70;;;1.37;;
36593;SDS011;22603;47.900;8.146;2023-04-25T07:56:10;2.73;;;1.30;;
36593;SDS011;22603;47.900;8.146;2023-04-25T07:58:57;4.30;;;1.83;;
36593;SDS011;22603;47.900;8.146;2023-04-25T08:01:45;3.53;;;1.40;;
36593;SDS011;22603;47.900;8.146;2023-04-25T08:04:34;2.90;;;1.27;;
36593;SDS011;22603;47.900;8.146;2023-04-25T08:07:21;2.20;;;1.10;;
36593;SDS011;22603;47.900;8.146;2023-04-25T08:10:08;1.03;;;0.70;;
36593;SDS011;22603;47.900;8.146;2023-04-25T08:12:56;1.30;;;0.67;;
36593;SDS011;22603;47.900;8.146;2023-04-25T08:15:43;0.60;;;0.60;;
36593;SDS011;22603;47.900;8.146;2023-04-25T08:18:29;2.70;;;1.10;;
36593;SDS011;22603;47.900;8.146;2023-04-25T08:21:18;1.70;;;0.60;;
36593;SDS011;22603;47.900;8.146;2023-04-25T08:24:05;0.47;;;0.40;;
36593;SDS011;22603;47.900;8.146;2023-04-25T08:26:52;0.50;;;0.40;;
36593;SDS011;22603;47.900;8.146;2023-04-25T08:29:41;0.40;;;0.40;;
36593;SDS011;22603;47.900;8.146;2023-04-25T08:32:28;0.93;;;0.50;;
36593;SDS011;22603;47.900;8.146;2023-04-25T08:35:15;0.67;;;0.67;;
36593;SDS011;22603;47.900;8.146;2023-04-25T08:38:04;0.60;;;0.40;;
36593;SDS011;22603;47.900;8.146;2023-04-25T08:40:52;1.37;;;0.53;;
36593;SDS011;22603;47.900;8.146;2023-04-25T08:43:41;0.50;;;0.50;;
36593;SDS011;22603;47.900;8.146;2023-04-25T08:46:29;0.40;;;0.40;;
36593;SDS011;22603;47.900;8.146;2023-04-25T08:49:17;0.40;;;0.40;;
36593;SDS011;22603;47.900;8.146;2023-04-25T08:52:06;0.40;;;0.40;;
36593;SDS011;22603;47.900;8.146;2023-04-25T08:54:59;0.50;;;0.43;;
36593;SDS011;22603;47.900;8.146;2023-04-25T08:57:47;0.50;;;0.50;;
36593;SDS011;22603;47.900;8.146;2023-04-25T09:00:36;1.03;;;0.70;;
36593;SDS011;22603;47.900;8.146;2023-04-25T09:03:22;1.57;;;0.63;;
36593;SDS011;22603;47.900;8.146;2023-04-25T09:06:10;1.53;;;0.80;;
36593;SDS011;22603;47.900;8.146;2023-04-25T09:09:01;1.03;;;0.80;;
36593;SDS011;22603;47.900;8.146;2023-04-25T09:11:51;2.13;;;1.10;;
36593;SDS011;22603;47.900;8.146;2023-04-25T09:14:41;1.57;;;0.80;;
36593;SDS011;22603;47.900;8.146;2023-04-25T09:17:29;1.20;;;0.90;;
36593;SDS011;22603;47.900;8.146;2023-04-25T09:20:16;1.87;;;0.97;;
36593;SDS011;22603;47.900;8.146;2023-04-25T09:23:05;2.97;;;1.10;;
36593;SDS011;22603;47.900;8.146;2023-04-25T09:25:53;2.77;;;1.20;;
36593;SDS011;22603;47.900;8.146;2023-04-25T09:28:41;1.20;;;0.80;;
36593;SDS011;22603;47.900;8.146;2023-04-25T09:31:29;1.67;;;0.80;;
36593;SDS011;22603;47.900;8.146;2023-04-25T09:34:19;4.07;;;0.83;;
36593;SDS011;22603;47.900;8.146;2023-04-25T09:37:06;1.73;;;0.87;;
36593;SDS011;22603;47.900;8.146;2023-04-25T09:39:55;2.43;;;0.80;;
36593;SDS011;22603;47.900;8.146;2023-04-25T09:42:45;4.17;;;1.00;;
36593;SDS011;22603;47.900;8.146;2023-04-25T09:45:33;1.70;;;1.00;;
36593;SDS011;22603;47.900;8.146;2023-04-25T09:48:31;1.70;;;0.90;;
36593;SDS011;22603;47.900;8.146;2023-04-25T09:51:18;2.37;;;1.23;;
36593;SDS011;22603;47.900;8.146;2023-04-25T09:54:05;2.60;;;1.00;;
36593;SDS011;22603;47.900;8.146;2023-04-25T09:56:52;2.67;;;1.10;;
36593;SDS011;22603;47.900;8.146;2023-04-25T09:59:41;2.47;;;0.93;;
36593;SDS011;22603;47.900;8.146;2023-04-25T10:02:31;3.27;;;1.10;;
36593;SDS011;22603;47.900;8.146;2023-04-25T10:05:20;1.93;;;1.00;;
36593;SDS011;22603;47.900;8.146;2023-04-25T10:08:10;3.17;;;1.00;;
36593;SDS011;22603;47.900;8.146;2023-04-25T10:11:00;1.80;;;0.77;;
36593;SDS011;22603;47.900;8.146;2023-04-25T10:13:53;1.73;;;0.97;;
36593;SDS011;22603;47.900;8.146;2023-04-25T10:16:44;1.60;;;0.70;;
36593;SDS011;22603;47.900;8.146;2023-04-25T10:19:34;1.90;;;1.00;;
36593;SDS011;22603;47.900;8.146;2023-04-25T10:22:26;2.67;;;1.03;;
36593;SDS011;22603;47.900;8.146;2023-04-25T10:25:17;3.30;;;1.40;;
36593;SDS011;22603;47.900;8.146;2023-04-25T10:28:06;3.57;;;1.63;;
36593;SDS011;22603;47.900;8.146;2023-04-25T10:30:57;2.03;;;1.17;;
36593;SDS011;22603;47.900;8.146;2023-04-25T10:33:44;2.57;;;1.20;;
36593;SDS011;22603;47.900;8.146;2023-04-25T10:36:33;3.83;;;1.60;;
36593;SDS011;22603;47.900;8.146;2023-04-25T10:39:23;2.33;;;1.07;;
36593;SDS011;22603;47.900;8.146;2023-04-25T10:42:12;4.73;;;1.60;;
36593;SDS011;22603;47.900;8.146;2023-04-25T10:45:04;5.40;;;1.70;;
36593;SDS011;22603;47.900;8.146;2023-04-25T10:47:52;2.90;;;1.40;;
36593;SDS011;22603;47.900;8.146;2023-04-25T10:50:40;4.17;;;1.70;;
36593;SDS011;22603;47.900;8.146;2023-04-25T10:53:31;2.90;;;1.50;;
36593;SDS011;22603;47.900;8.146;2023-04-25T10:56:20;4.07;;;1.43;;
36593;SDS011;22603;47.900;8.146;2023-04-25T10:59:08;4.33;;;1.20;;
36593;SDS011;22603;47.900;8.146;2023-04-25T11:01:57;4.07;;;1.30;;
36593;SDS011;22603;47.900;8.146;2023-04-25T11:04:44;5.37;;;1.77;;
36593;SDS011;22603;47.900;8.146;2023-04-25T11:07:34;5.00;;;1.57;;
36593;SDS011;22603;47.900;8.146;2023-04-25T11:10:53;3.93;;;1.70;;
36593;SDS011;22603;47.900;8.146;2023-04-25T11:13:41;7.10;;;2.30;;
36593;SDS011;22603;47.900;8.146;2023-04-25T11:16:28;7.93;;;2.30;;
36593;SDS011;22603;47.900;8.146;2023-04-25T11:19:16;5.73;;;1.70;;
36593;SDS011;22603;47.900;8.146;2023-04-25T11:22:05;7.70;;;2.50;;
36593;SDS011;22603;47.900;8.146;2023-04-25T11:24:52;4.50;;;1.67;;
36593;SDS011;22603;47.900;8.146;2023-04-25T11:27:50;4.50;;;1.70;;
36593;SDS011;22603;47.900;8.146;2023-04-25T11:30:37;4.57;;;1.70;;
36593;SDS011;22603;47.900;8.146;2023-04-25T11:33:24;4.03;;;1.53;;
36593;SDS011;22603;47.900;8.146;2023-04-25T11:36:12;3.20;;;1.40;;
36593;SDS011;22603;47.900;8.146;2023-04-25T11:39:00;3.50;;;1.40;;
36593;SDS011;22603;47.900;8.146;2023-04-25T11:41:48;3.40;;;1.50;;
36593;SDS011;22603;47.900;8.146;2023-04-25T11:44:39;3.80;;;1.47;;
36593;SDS011;22603;47.900;8.146;2023-04-25T11:47:30;5.00;;;1.80;;
36593;SDS011;22603;47.900;8.146;2023-04-25T11:50:23;4.57;;;1.70;;
36593;SDS011;22603;47.900;8.146;2023-04-25T11:53:10;4.50;;;1.70;;
36593;SDS011;22603;47.900;8.146;2023-04-25T11:55:58;4.97;;;1.50;;
36593;SDS011;22603;47.900;8.146;2023-04-25T11:58:56;6.10;;;2.00;;
36593;SDS011;22603;47.900;8.146;2023-04-25T12:01:49;5.67;;;1.93;;
36593;SDS011;22603;47.900;8.146;2023-04-25T12:04:36;7.10;;;2.43;;
36593;SDS011;22603;47.900;8.146;2023-04-25T12:07:27;5.03;;;2.10;;
36593;SDS011;22603;47.900;8.146;2023-04-25T12:10:15;5.43;;;1.77;;
36593;SDS011;22603;47.900;8.146;2023-04-25T12:13:17;4.63;;;1.67;;
36593;SDS011;22603;47.900;8.146;2023-04-25T12:16:05;4.77;;;1.80;;
36593;SDS011;22603;47.900;8.146;2023-04-25T12:18:56;2.73;;;1.30;;
36593;SDS011;22603;47.900;8.146;2023-04-25T12:21:44;5.67;;;1.83;;
36593;SDS011;22603;47.900;8.146;2023-04-25T12:24:35;5.07;;;1.93;;
36593;SDS011;22603;47.900;8.146;2023-04-25T12:27:23;4.63;;;1.90;;
36593;SDS011;22603;47.900;8.146;2023-04-25T12:30:12;4.77;;;1.83;;
36593;SDS011;22603;47.900;8.146;2023-04-25T12:33:02;4.87;;;1.80;;
36593;SDS011;22603;47.900;8.146;2023-04-25T12:35:51;4.47;;;1.60;;
36593;SDS011;22603;47.900;8.146;2023-04-25T12:38:39;3.60;;;1.47;;
36593;SDS011;22603;47.900;8.146;2023-04-25T12:41:26;5.67;;;1.90;;
36593;SDS011;22603;47.900;8.146;2023-04-25T12:44:14;2.37;;;1.30;;
36593;SDS011;22603;47.900;8.146;2023-04-25T12:47:02;3.20;;;1.30;;
36593;SDS011;22603;47.900;8.146;2023-04-25T12:49:50;4.43;;;1.53;;
36593;SDS011;22603;47.900;8.146;2023-04-25T12:52:39;1.80;;;0.87;;
36593;SDS011;22603;47.900;8.146;2023-04-25T12:55:26;2.90;;;1.30;;
36593;SDS011;22603;47.900;8.146;2023-04-25T12:58:18;3.20;;;1.47;;
36593;SDS011;22603;47.900;8.146;2023-04-25T13:01:06;2.73;;;1.30;;
36593;SDS011;22603;47.900;8.146;2023-04-25T13:03:54;2.83;;;1.10;;
36593;SDS011;22603;47.900;8.146;2023-04-25T13:06:42;2.27;;;1.20;;
36593;SDS011;22603;47.900;8.146;2023-04-25T13:09:30;2.03;;;1.23;;
36593;SDS011;22603;47.900;8.146;2023-04-25T13:12:17;3.03;;;1.10;;
36593;SDS011;22603;47.900;8.146;2023-04-25T13:15:04;2.77;;;1.00;;
36593;SDS011;22603;47.900;8.146;2023-04-25T13:17:54;2.67;;;1.20;;
36593;SDS011;22603;47.900;8.146;2023-04-25T13:20:41;1.33;;;0.97;;
36593;SDS011;22603;47.900;8.146;2023-04-25T13:23:28;2.13;;;1.10;;
36593;SDS011;22603;47.900;8.146;2023-04-25T13:26:19;3.00;;;1.30;;
36593;SDS011;22603;47.900;8.146;2023-04-25T13:29:06;2.73;;;1.10;;
36593;SDS011;22603;47.900;8.146;2023-04-25T13:31:54;1.73;;;1.00;;
36593;SDS011;22603;47.900;8.146;2023-04-25T13:34:41;3.27;;;1.07;;
36593;SDS011;22603;47.900;8.146;2023-04-25T13:37:28;3.50;;;0.97;;
36593;SDS011;22603;47.900;8.146;2023-04-25T13:40:17;3.13;;;1.30;;
36593;SDS011;22603;47.900;8.146;2023-04-25T13:43:09;1.70;;;1.07;;
36593;SDS011;22603;47.900;8.146;2023-04-25T13:45:56;3.83;;;0.97;;
36593;SDS011;22603;47.900;8.146;2023-04-25T13:48:43;2.70;;;1.20;;
36593;SDS011;22603;47.900;8.146;2023-04-25T13:51:33;2.50;;;1.27;;
36593;SDS011;22603;47.900;8.146;2023-04-25T13:54:20;4.33;;;1.10;;
36593;SDS011;22603;47.900;8.146;2023-04-25T13:57:08;2.90;;;1.10;;
36593;SDS011;22603;47.900;8.146;2023-04-25T13:59:57;2.07;;;0.90;;
36593;SDS011;22603;47.900;8.146;2023-04-25T14:02:44;3.40;;;1.10;;
36593;SDS011;22603;47.900;8.146;2023-04-25T14:05:34;2.27;;;1.07;;
36593;SDS011;22603;47.900;8.146;2023-04-25T14:08:24;2.10;;;1.13;;
36593;SDS011;22603;47.900;8.146;2023-04-25T14:11:11;2.07;;;1.00;;
36593;SDS011;22603;47.900;8.146;2023-04-25T14:13:58;1.63;;;0.80;;
36593;SDS011;22603;47.900;8.146;2023-04-25T14:16:47;2.47;;;1.00;;
36593;SDS011;22603;47.900;8.146;2023-04-25T14:19:38;1.93;;;0.90;;
36593;SDS011;22603;47.900;8.146;2023-04-25T14:22:28;3.03;;;1.00;;
36593;SDS011;22603;47.900;8.146;2023-04-25T14:25:15;1.97;;;1.07;;
36593;SDS011;22603;47.900;8.146;2023-04-25T14:28:02;2.33;;;0.97;;
36593;SDS011;22603;47.900;8.146;2023-04-25T14:35:20;3.23;;;1.40;;
36593;SDS011;22603;47.900;8.146;2023-04-25T14:38:07;1.63;;;0.93;;
36593;SDS011;22603;47.900;8.146;2023-04-25T14:40:56;1.13;;;0.77;;
36593;SDS011;22603;47.900;8.146;2023-04-25T14:43:46;2.40;;;0.93;;
36593;SDS011;22603;47.900;8.146;2023-04-25T14:46:33;1.30;;;0.80;;
36593;SDS011;22603;47.900;8.146;2023-04-25T14:49:23;2.90;;;1.10;;
36593;SDS011;22603;47.900;8.146;2023-04-25T14:52:11;1.73;;;1.00;;
36593;SDS011;22603;47.900;8.146;2023-04-25T14:55:00;2.70;;;1.30;;
36593;SDS011;22603;47.900;8.146;2023-04-25T14:57:50;2.03;;;1.00;;
36593;SDS011;22603;47.900;8.146;2023-04-25T15:00:41;3.07;;;1.30;;
36593;SDS011;22603;47.900;8.146;2023-04-25T15:03:29;2.50;;;1.03;;
36593;SDS011;22603;47.900;8.146;2023-04-25T15:06:17;4.43;;;1.30;;
36593;SDS011;22603;47.900;8.146;2023-04-25T15:09:05;3.17;;;1.40;;
36593;SDS011;22603;47.900;8.146;2023-04-25T15:11:53;4.53;;;1.60;;
36593;SDS011;22603;47.900;8.146;2023-04-25T15:14:40;4.07;;;1.50;;
36593;SDS011;22603;47.900;8.146;2023-04-25T15:17:31;3.30;;;1.20;;
36593;SDS011;22603;47.900;8.146;2023-04-25T15:20:17;3.50;;;1.20;;
36593;SDS011;22603;47.900;8.146;2023-04-25T15:23:05;2.90;;;1.50;;
36593;SDS011;22603;47.900;8.146;2023-04-25T15:25:53;4.30;;;1.47;;
36593;SDS011;22603;47.900;8.146;2023-04-25T15:28:40;3.87;;;1.43;;
36593;SDS011;22603;47.900;8.146;2023-04-25T15:31:27;3.43;;;1.47;;
36593;SDS011;22603;47.900;8.146;2023-04-25T15:34:15;5.40;;;1.93;;
36593;SDS011;22603;47.900;8.146;2023-04-25T15:37:02;3.70;;;1.50;;
36593;SDS011;22603;47.900;8.146;2023-04-25T15:39:49;3.93;;;1.67;;
36593;SDS011;22603;47.900;8.146;2023-04-25T15:42:51;4.63;;;1.53;;
36593;SDS011;22603;47.900;8.146;2023-04-25T15:45:39;5.70;;;1.87;;
36593;SDS011;22603;47.900;8.146;2023-04-25T15:48:26;3.70;;;1.43;;
36593;SDS011;22603;47.900;8.146;2023-04-25T15:51:13;6.00;;;1.40;;
36593;SDS011;22603;47.900;8.146;2023-04-25T15:54:03;3.53;;;1.57;;
36593;SDS011;22603;47.900;8.146;2023-04-25T15:56:50;2.60;;;1.27;;
36593;SDS011;22603;47.900;8.146;2023-04-25T15:59:39;3.00;;;1.40;;
36593;SDS011;22603;47.900;8.146;2023-04-25T16:02:26;2.53;;;1.37;;
36593;SDS011;22603;47.900;8.146;2023-04-25T16:05:14;3.53;;;1.57;;
36593;SDS011;22603;47.900;8.146;2023-04-25T16:08:04;5.13;;;1.67;;
36593;SDS011;22603;47.900;8.146;2023-04-25T16:10:52;6.07;;;1.50;;
36593;SDS011;22603;47.900;8.146;2023-04-25T16:13:39;3.27;;;1.30;;
36593;SDS011;22603;47.900;8.146;2023-04-25T16:16:28;4.97;;;1.70;;
36593;SDS011;22603;47.900;8.146;2023-04-25T16:19:15;4.23;;;1.37;;
36593;SDS011;22603;47.900;8.146;2023-04-25T16:22:05;2.97;;;1.17;;
36593;SDS011;22603;47.900;8.146;2023-04-25T16:24:55;2.73;;;1.10;;
36593;SDS011;22603;47.900;8.146;2023-04-25T16:27:42;3.00;;;1.27;;
36593;SDS011;22603;47.900;8.146;2023-04-25T16:30:29;4.63;;;0.97;;
36593;SDS011;22603;47.900;8.146;2023-04-25T16:33:18;2.23;;;0.80;;
36593;SDS011;22603;47.900;8.146;2023-04-25T16:36:05;4.83;;;1.20;;
36593;SDS011;22603;47.900;8.146;2023-04-25T16:38:53;5.30;;;1.20;;
36593;SDS011;22603;47.900;8.146;2023-04-25T16:41:40;2.97;;;0.90;;
36593;SDS011;22603;47.900;8.146;2023-04-25T16:44:27;2.50;;;1.00;;
36593;SDS011;22603;47.900;8.146;2023-04-25T16:47:15;3.33;;;1.10;;
36593;SDS011;22603;47.900;8.146;2023-04-25T16:50:07;2.17;;;1.00;;
36593;SDS011;22603;47.900;8.146;2023-04-25T16:52:54;2.07;;;0.80;;
36593;SDS011;22603;47.900;8.146;2023-04-25T16:55:41;1.23;;;0.70;;
36593;SDS011;22603;47.900;8.146;2023-04-25T16:58:28;2.40;;;0.93;;